< < Back
Terminal Aerodrome Forecast


Current Version              Previous Versions:   1  2  3  4  5  6  7  8  9  

Terminal Aerodrome Forecast

249
FTUS42 KJAX 071721
TAFSSI
TAF
KSSI 071721Z 0718/0818 31013G23KT P6SM SCT030
     FM072300 29008KT P6SM SKC
     FM080200 28006KT P6SM SKC
     FM081300 26008KT P6SM SCT030 SCT120
     FM081600 25012G20KT P6SM SCT040 BKN100=

Latest METAR

630
SAUS70 KWBC 072200 RRA
MTRSSI
METAR KSSI 072153Z AUTO 31007G15KT 10SM CLR 13/M03 A2995 RMK AO2 SLP143
T01281028


USA.gov is the U.S. government's official web portal to all federal, state and local government web resources and services.